This is the latest recevied weather packets stored in our database for station/object DC7RY. If no packets are shown the sender has not sent any weather packets the latest 1 day(s).
| Time | Temp. | Humidity | Pressure | Rain* | Wind** | Luminosity | Snow |
|---|---|---|---|---|---|---|---|
| 1777991419 | 21.11° C | 58% | 1000.8 hPa | 0 mm | 0.45 m/s, 98° | 48 W/m² | - |
| 1777990827 | 21.67° C | 56% | 1001 hPa | 0 mm | 0.89 m/s, 92° | 81 W/m² | - |
| 1777990219 | 22.22° C | 56% | 1001.2 hPa | 0 mm | 1.34 m/s, 92° | 112 W/m² | - |
| 1777989626 | 22.78° C | 55% | 1001.3 hPa | 0 mm | 1.79 m/s, 91° | 209 W/m² | - |
| 1777989018 | 22.78° C | 54% | 1001.4 hPa | 0 mm | 0.45 m/s, 100° | 206 W/m² | - |
| 1777988426 | 22.78° C | 52% | 1001.4 hPa | 0 mm | 0.45 m/s, 329° | 266 W/m² | - |
| 1777987817 | 22.78° C | 50% | 1001.6 hPa | 0 mm | 0.89 m/s, 312° | 285 W/m² | - |
| 1777987224 | 22.78° C | 51% | 1001.4 hPa | 0 mm | 1.34 m/s, 273° | 290 W/m² | - |
| 1777986616 | 22.78° C | 50% | 1001.8 hPa | 0 mm | 0.45 m/s, 281° | 199 W/m² | - |
| 1777986024 | 23.33° C | 49% | 1001.9 hPa | 0 mm | 0.89 m/s, 270° | 189 W/m² | - |
| 1777985416 | 23.33° C | 49% | 1002 hPa | 0 mm | 0.89 m/s, 270° | 231 W/m² | - |
| 1777984824 | 23.33° C | 49% | 1002.1 hPa | 0 mm | 0.89 m/s, 93° | 285 W/m² | - |
| 1777984216 | 23.33° C | 49% | 1002.3 hPa | 0 mm | 0.45 m/s, 289° | 238 W/m² | - |
| 1777983624 | 22.78° C | 50% | 1002.2 hPa | 0 mm | 0.89 m/s, 282° | 249 W/m² | - |
| 1777983016 | 22.78° C | 48% | 1002.4 hPa | 0 mm | 0.45 m/s, 269° | 247 W/m² | - |
| 1777982422 | 22.22° C | 49% | 1002.4 hPa | 0 mm | 0.45 m/s, 267° | 281 W/m² | - |
| 1777981830 | 22.22° C | 50% | 1002.4 hPa | 0 mm | 0.89 m/s, 86° | 246 W/m² | - |
| 1777981222 | 22.78° C | 49% | 1002.7 hPa | 0 mm | 1.34 m/s, 271° | 204 W/m² | - |
| 1777980630 | 22.22° C | 51% | 1002.9 hPa | 0 mm | 0.45 m/s, 232° | 233 W/m² | - |
| 1777980022 | 21.67° C | 51% | 1002.8 hPa | 0 mm | 0.45 m/s, 270° | 281 W/m² | - |
| 1777979428 | 21.11° C | 53% | 1002.9 hPa | 0 mm | 0 m/s | 308 W/m² | - |
| 1777978819 | 21.11° C | 53% | 1003 hPa | 0 mm | 0.45 m/s, 270° | 438 W/m² | - |
| 1777978226 | 20.56° C | 55% | 1003 hPa | 0 mm | 0.45 m/s, 96° | 412 W/m² | - |
| 1777977617 | 20° C | 59% | 1003.2 hPa | 0 mm | 0.89 m/s, 274° | 384 W/m² | - |
| 1777977025 | 20° C | 56% | 1003.3 hPa | 0 mm | 0 m/s | 290 W/m² | - |
* Rain latest hour (hover to see other rain measurements)
** Current wind speed in m/s (hover to see current wind gust speed)